sensor_id;sensor_type;location;lat;lon;timestamp;P1;durP1;ratioP1;P2;durP2;ratioP2
75218;SDS011;63801;49.414;19.474;2022-12-22T00:01:36;14.60;;;7.88;;
75218;SDS011;63801;49.414;19.474;2022-12-22T00:03:55;15.32;;;7.80;;
75218;SDS011;63801;49.414;19.474;2022-12-22T00:06:14;14.60;;;7.07;;
75218;SDS011;63801;49.414;19.474;2022-12-22T00:08:33;13.95;;;6.75;;
75218;SDS011;63801;49.414;19.474;2022-12-22T00:10:52;14.48;;;7.78;;
75218;SDS011;63801;49.414;19.474;2022-12-22T00:13:13;16.73;;;8.15;;
75218;SDS011;63801;49.414;19.474;2022-12-22T00:15:33;17.13;;;7.72;;
75218;SDS011;63801;49.414;19.474;2022-12-22T00:17:52;17.10;;;7.95;;
75218;SDS011;63801;49.414;19.474;2022-12-22T00:20:15;15.27;;;7.40;;
75218;SDS011;63801;49.414;19.474;2022-12-22T00:22:36;15.30;;;7.10;;
75218;SDS011;63801;49.414;19.474;2022-12-22T00:24:55;16.25;;;7.80;;
75218;SDS011;63801;49.414;19.474;2022-12-22T00:27:15;14.90;;;7.63;;
75218;SDS011;63801;49.414;19.474;2022-12-22T00:29:36;18.13;;;8.43;;
75218;SDS011;63801;49.414;19.474;2022-12-22T00:31:59;18.50;;;8.32;;
75218;SDS011;63801;49.414;19.474;2022-12-22T00:34:19;19.10;;;9.35;;
75218;SDS011;63801;49.414;19.474;2022-12-22T00:36:39;17.30;;;8.75;;
75218;SDS011;63801;49.414;19.474;2022-12-22T00:38:58;18.15;;;9.15;;
75218;SDS011;63801;49.414;19.474;2022-12-22T00:41:17;16.80;;;8.95;;
75218;SDS011;63801;49.414;19.474;2022-12-22T00:43:36;15.48;;;8.32;;
75218;SDS011;63801;49.414;19.474;2022-12-22T00:45:55;16.30;;;8.00;;
75218;SDS011;63801;49.414;19.474;2022-12-22T00:48:18;14.25;;;7.85;;
75218;SDS011;63801;49.414;19.474;2022-12-22T00:50:41;14.48;;;7.00;;
75218;SDS011;63801;49.414;19.474;2022-12-22T00:53:00;14.40;;;6.35;;
75218;SDS011;63801;49.414;19.474;2022-12-22T00:55:21;12.52;;;6.28;;
75218;SDS011;63801;49.414;19.474;2022-12-22T00:57:47;12.77;;;6.13;;
75218;SDS011;63801;49.414;19.474;2022-12-22T01:00:09;10.82;;;5.68;;
75218;SDS011;63801;49.414;19.474;2022-12-22T01:02:33;11.57;;;5.88;;
75218;SDS011;63801;49.414;19.474;2022-12-22T01:04:52;10.70;;;5.25;;
75218;SDS011;63801;49.414;19.474;2022-12-22T01:07:11;12.55;;;5.85;;
75218;SDS011;63801;49.414;19.474;2022-12-22T01:09:32;7.57;;;4.55;;
75218;SDS011;63801;49.414;19.474;2022-12-22T01:11:53;9.95;;;5.53;;
75218;SDS011;63801;49.414;19.474;2022-12-22T01:14:12;12.02;;;5.65;;
75218;SDS011;63801;49.414;19.474;2022-12-22T01:16:33;10.82;;;4.85;;
75218;SDS011;63801;49.414;19.474;2022-12-22T01:18:52;10.63;;;5.55;;
75218;SDS011;63801;49.414;19.474;2022-12-22T01:21:11;11.60;;;5.65;;
75218;SDS011;63801;49.414;19.474;2022-12-22T01:23:30;13.27;;;5.88;;
75218;SDS011;63801;49.414;19.474;2022-12-22T01:25:50;12.32;;;6.55;;
75218;SDS011;63801;49.414;19.474;2022-12-22T01:28:13;10.48;;;5.57;;
75218;SDS011;63801;49.414;19.474;2022-12-22T01:30:33;10.93;;;6.07;;
75218;SDS011;63801;49.414;19.474;2022-12-22T01:32:52;11.35;;;6.40;;
75218;SDS011;63801;49.414;19.474;2022-12-22T01:35:19;13.30;;;6.88;;
75218;SDS011;63801;49.414;19.474;2022-12-22T01:37:39;14.63;;;6.78;;
75218;SDS011;63801;49.414;19.474;2022-12-22T01:39:58;10.05;;;5.55;;
75218;SDS011;63801;49.414;19.474;2022-12-22T01:42:17;12.82;;;6.68;;
75218;SDS011;63801;49.414;19.474;2022-12-22T01:44:36;12.32;;;6.32;;
75218;SDS011;63801;49.414;19.474;2022-12-22T01:47:17;11.73;;;5.90;;
75218;SDS011;63801;49.414;19.474;2022-12-22T01:49:46;10.20;;;4.97;;
75218;SDS011;63801;49.414;19.474;2022-12-22T01:52:05;10.45;;;5.25;;
75218;SDS011;63801;49.414;19.474;2022-12-22T01:54:26;11.82;;;5.32;;
75218;SDS011;63801;49.414;19.474;2022-12-22T01:56:45;7.70;;;4.13;;
75218;SDS011;63801;49.414;19.474;2022-12-22T01:59:06;8.50;;;4.13;;
75218;SDS011;63801;49.414;19.474;2022-12-22T02:01:25;9.35;;;4.90;;
75218;SDS011;63801;49.414;19.474;2022-12-22T02:03:44;9.45;;;5.00;;
75218;SDS011;63801;49.414;19.474;2022-12-22T02:08:41;8.07;;;4.38;;
75218;SDS011;63801;49.414;19.474;2022-12-22T02:16:45;13.07;;;5.95;;
75218;SDS011;63801;49.414;19.474;2022-12-22T02:19:07;11.13;;;5.20;;
75218;SDS011;63801;49.414;19.474;2022-12-22T02:26:55;9.23;;;5.03;;
75218;SDS011;63801;49.414;19.474;2022-12-22T02:29:36;10.98;;;5.63;;
75218;SDS011;63801;49.414;19.474;2022-12-22T02:31:59;9.43;;;4.93;;
75218;SDS011;63801;49.414;19.474;2022-12-22T02:34:18;11.00;;;5.85;;
75218;SDS011;63801;49.414;19.474;2022-12-22T02:36:46;10.80;;;5.15;;
75218;SDS011;63801;49.414;19.474;2022-12-22T02:44:41;20.77;;;10.48;;
75218;SDS011;63801;49.414;19.474;2022-12-22T02:47:28;23.90;;;10.85;;
75218;SDS011;63801;49.414;19.474;2022-12-22T02:50:02;19.90;;;8.50;;
75218;SDS011;63801;49.414;19.474;2022-12-22T02:52:31;12.50;;;6.63;;
75218;SDS011;63801;49.414;19.474;2022-12-22T02:54:53;14.60;;;6.13;;
75218;SDS011;63801;49.414;19.474;2022-12-22T02:57:14;22.70;;;10.52;;
75218;SDS011;63801;49.414;19.474;2022-12-22T02:59:35;23.95;;;10.88;;
75218;SDS011;63801;49.414;19.474;2022-12-22T03:01:54;22.40;;;10.88;;
75218;SDS011;63801;49.414;19.474;2022-12-22T03:04:13;20.25;;;10.38;;
75218;SDS011;63801;49.414;19.474;2022-12-22T03:06:32;22.13;;;9.82;;
75218;SDS011;63801;49.414;19.474;2022-12-22T03:08:51;19.05;;;10.73;;
75218;SDS011;63801;49.414;19.474;2022-12-22T03:11:10;20.35;;;10.32;;
75218;SDS011;63801;49.414;19.474;2022-12-22T03:13:29;25.75;;;12.25;;
75218;SDS011;63801;49.414;19.474;2022-12-22T03:15:48;18.55;;;8.80;;
75218;SDS011;63801;49.414;19.474;2022-12-22T03:18:08;16.15;;;6.97;;
75218;SDS011;63801;49.414;19.474;2022-12-22T03:20:28;15.75;;;8.23;;
75218;SDS011;63801;49.414;19.474;2022-12-22T03:22:47;9.55;;;5.85;;
75218;SDS011;63801;49.414;19.474;2022-12-22T03:25:06;12.68;;;6.60;;
75218;SDS011;63801;49.414;19.474;2022-12-22T03:27:26;12.15;;;6.47;;
75218;SDS011;63801;49.414;19.474;2022-12-22T03:29:26;10.90;;;6.32;;
75218;SDS011;63801;49.414;19.474;2022-12-22T03:31:26;9.70;;;5.38;;
75218;SDS011;63801;49.414;19.474;2022-12-22T03:33:27;11.68;;;6.30;;
75218;SDS011;63801;49.414;19.474;2022-12-22T03:35:28;16.23;;;7.95;;
75218;SDS011;63801;49.414;19.474;2022-12-22T03:37:29;15.63;;;8.32;;
75218;SDS011;63801;49.414;19.474;2022-12-22T03:39:29;14.15;;;7.97;;
75218;SDS011;63801;49.414;19.474;2022-12-22T03:41:29;14.18;;;8.02;;
75218;SDS011;63801;49.414;19.474;2022-12-22T03:43:48;14.48;;;7.78;;
75218;SDS011;63801;49.414;19.474;2022-12-22T03:46:11;10.93;;;5.10;;
75218;SDS011;63801;49.414;19.474;2022-12-22T03:48:31;7.57;;;4.15;;
75218;SDS011;63801;49.414;19.474;2022-12-22T03:50:31;8.65;;;4.75;;
75218;SDS011;63801;49.414;19.474;2022-12-22T03:52:31;9.70;;;5.05;;
75218;SDS011;63801;49.414;19.474;2022-12-22T03:54:32;9.07;;;5.38;;
75218;SDS011;63801;49.414;19.474;2022-12-22T03:56:32;8.20;;;5.00;;
75218;SDS011;63801;49.414;19.474;2022-12-22T03:58:32;12.23;;;6.07;;
75218;SDS011;63801;49.414;19.474;2022-12-22T04:00:33;12.55;;;6.28;;
75218;SDS011;63801;49.414;19.474;2022-12-22T04:02:33;14.10;;;6.90;;
75218;SDS011;63801;49.414;19.474;2022-12-22T04:04:33;12.07;;;6.43;;
75218;SDS011;63801;49.414;19.474;2022-12-22T04:06:34;12.88;;;6.40;;
75218;SDS011;63801;49.414;19.474;2022-12-22T04:08:34;10.60;;;5.32;;
75218;SDS011;63801;49.414;19.474;2022-12-22T04:10:34;8.10;;;4.07;;
75218;SDS011;63801;49.414;19.474;2022-12-22T04:12:53;8.63;;;4.60;;
75218;SDS011;63801;49.414;19.474;2022-12-22T04:14:53;7.97;;;4.55;;
75218;SDS011;63801;49.414;19.474;2022-12-22T04:16:54;8.25;;;4.03;;
75218;SDS011;63801;49.414;19.474;2022-12-22T04:18:54;7.85;;;3.92;;
75218;SDS011;63801;49.414;19.474;2022-12-22T04:20:55;6.28;;;3.08;;
75218;SDS011;63801;49.414;19.474;2022-12-22T04:22:55;6.43;;;3.35;;
75218;SDS011;63801;49.414;19.474;2022-12-22T04:24:56;8.40;;;3.90;;
75218;SDS011;63801;49.414;19.474;2022-12-22T04:26:56;6.78;;;3.47;;
75218;SDS011;63801;49.414;19.474;2022-12-22T04:28:57;5.60;;;2.78;;
75218;SDS011;63801;49.414;19.474;2022-12-22T04:30:57;6.30;;;4.03;;
75218;SDS011;63801;49.414;19.474;2022-12-22T04:32:57;5.72;;;3.30;;
75218;SDS011;63801;49.414;19.474;2022-12-22T04:34:58;6.50;;;3.63;;
75218;SDS011;63801;49.414;19.474;2022-12-22T04:36:58;6.70;;;3.70;;
75218;SDS011;63801;49.414;19.474;2022-12-22T04:38:59;4.63;;;3.00;;
75218;SDS011;63801;49.414;19.474;2022-12-22T04:40:59;6.18;;;3.47;;
75218;SDS011;63801;49.414;19.474;2022-12-22T04:42:59;5.30;;;3.25;;
75218;SDS011;63801;49.414;19.474;2022-12-22T04:45:00;6.05;;;3.25;;
75218;SDS011;63801;49.414;19.474;2022-12-22T04:47:00;4.18;;;2.75;;
75218;SDS011;63801;49.414;19.474;2022-12-22T04:49:00;6.25;;;3.58;;
75218;SDS011;63801;49.414;19.474;2022-12-22T04:51:01;6.53;;;3.55;;
75218;SDS011;63801;49.414;19.474;2022-12-22T04:53:02;8.18;;;3.63;;
75218;SDS011;63801;49.414;19.474;2022-12-22T04:55:02;7.80;;;4.20;;
75218;SDS011;63801;49.414;19.474;2022-12-22T04:59:05;7.72;;;4.10;;
75218;SDS011;63801;49.414;19.474;2022-12-22T05:01:09;5.47;;;3.40;;
75218;SDS011;63801;49.414;19.474;2022-12-22T05:03:11;7.38;;;3.83;;
75218;SDS011;63801;49.414;19.474;2022-12-22T05:05:11;5.93;;;3.40;;
75218;SDS011;63801;49.414;19.474;2022-12-22T05:07:12;8.55;;;3.83;;
75218;SDS011;63801;49.414;19.474;2022-12-22T05:09:12;6.97;;;3.55;;
75218;SDS011;63801;49.414;19.474;2022-12-22T05:11:12;6.32;;;3.60;;
75218;SDS011;63801;49.414;19.474;2022-12-22T05:13:13;4.85;;;3.15;;
75218;SDS011;63801;49.414;19.474;2022-12-22T05:15:13;5.93;;;3.22;;
75218;SDS011;63801;49.414;19.474;2022-12-22T05:17:13;5.65;;;3.67;;
75218;SDS011;63801;49.414;19.474;2022-12-22T05:19:14;6.13;;;3.13;;
75218;SDS011;63801;49.414;19.474;2022-12-22T05:21:16;8.45;;;4.65;;
75218;SDS011;63801;49.414;19.474;2022-12-22T05:23:18;24.50;;;13.23;;
75218;SDS011;63801;49.414;19.474;2022-12-22T05:25:18;45.17;;;24.85;;
75218;SDS011;63801;49.414;19.474;2022-12-22T05:27:19;30.40;;;16.50;;
75218;SDS011;63801;49.414;19.474;2022-12-22T05:29:19;28.75;;;15.07;;
75218;SDS011;63801;49.414;19.474;2022-12-22T05:31:21;27.33;;;13.32;;
75218;SDS011;63801;49.414;19.474;2022-12-22T05:33:22;26.35;;;13.63;;
75218;SDS011;63801;49.414;19.474;2022-12-22T05:35:22;22.63;;;12.27;;
75218;SDS011;63801;49.414;19.474;2022-12-22T05:37:23;25.48;;;13.02;;
75218;SDS011;63801;49.414;19.474;2022-12-22T05:39:23;30.50;;;14.73;;
75218;SDS011;63801;49.414;19.474;2022-12-22T05:41:24;26.88;;;14.45;;
75218;SDS011;63801;49.414;19.474;2022-12-22T05:43:24;27.55;;;14.57;;
75218;SDS011;63801;49.414;19.474;2022-12-22T05:45:24;33.63;;;17.55;;
75218;SDS011;63801;49.414;19.474;2022-12-22T05:47:25;27.95;;;14.63;;
75218;SDS011;63801;49.414;19.474;2022-12-22T05:49:25;25.42;;;12.13;;
75218;SDS011;63801;49.414;19.474;2022-12-22T05:51:25;22.20;;;13.25;;
75218;SDS011;63801;49.414;19.474;2022-12-22T05:53:26;24.38;;;14.23;;
75218;SDS011;63801;49.414;19.474;2022-12-22T05:55:26;31.42;;;15.27;;
75218;SDS011;63801;49.414;19.474;2022-12-22T05:57:27;36.67;;;18.63;;
75218;SDS011;63801;49.414;19.474;2022-12-22T05:59:27;34.75;;;19.45;;
75218;SDS011;63801;49.414;19.474;2022-12-22T06:01:27;37.20;;;21.02;;
75218;SDS011;63801;49.414;19.474;2022-12-22T06:03:28;42.63;;;20.48;;
75218;SDS011;63801;49.414;19.474;2022-12-22T06:05:29;38.08;;;18.02;;
75218;SDS011;63801;49.414;19.474;2022-12-22T06:07:29;34.15;;;15.23;;
75218;SDS011;63801;49.414;19.474;2022-12-22T06:09:30;34.58;;;17.27;;
75218;SDS011;63801;49.414;19.474;2022-12-22T06:11:30;42.72;;;19.48;;
75218;SDS011;63801;49.414;19.474;2022-12-22T06:13:30;40.85;;;18.35;;
75218;SDS011;63801;49.414;19.474;2022-12-22T06:15:31;64.68;;;21.83;;
75218;SDS011;63801;49.414;19.474;2022-12-22T06:17:32;116.95;;;41.47;;
75218;SDS011;63801;49.414;19.474;2022-12-22T06:19:53;232.18;;;70.40;;
75218;SDS011;63801;49.414;19.474;2022-12-22T06:21:53;237.55;;;71.25;;
75218;SDS011;63801;49.414;19.474;2022-12-22T06:23:53;134.90;;;40.53;;
75218;SDS011;63801;49.414;19.474;2022-12-22T06:25:55;17.40;;;7.10;;
75218;SDS011;63801;49.414;19.474;2022-12-22T06:27:56;28.30;;;10.15;;
75218;SDS011;63801;49.414;19.474;2022-12-22T06:29:57;238.50;;;86.20;;
75218;SDS011;63801;49.414;19.474;2022-12-22T06:31:57;151.52;;;49.28;;
75218;SDS011;63801;49.414;19.474;2022-12-22T06:33:58;154.57;;;48.70;;
75218;SDS011;63801;49.414;19.474;2022-12-22T06:35:58;401.17;;;110.03;;
75218;SDS011;63801;49.414;19.474;2022-12-22T06:38:03;94.00;;;30.65;;
75218;SDS011;63801;49.414;19.474;2022-12-22T06:40:04;49.35;;;19.40;;
75218;SDS011;63801;49.414;19.474;2022-12-22T06:42:05;38.17;;;13.50;;
75218;SDS011;63801;49.414;19.474;2022-12-22T06:44:24;29.33;;;12.77;;
75218;SDS011;63801;49.414;19.474;2022-12-22T06:46:24;36.17;;;12.93;;
75218;SDS011;63801;49.414;19.474;2022-12-22T06:48:25;35.30;;;13.25;;
75218;SDS011;63801;49.414;19.474;2022-12-22T06:50:25;32.85;;;11.55;;
75218;SDS011;63801;49.414;19.474;2022-12-22T06:52:25;18.38;;;9.15;;
75218;SDS011;63801;49.414;19.474;2022-12-22T06:54:25;16.95;;;8.52;;
75218;SDS011;63801;49.414;19.474;2022-12-22T06:56:26;31.23;;;12.52;;
75218;SDS011;63801;49.414;19.474;2022-12-22T06:58:26;35.83;;;14.68;;
75218;SDS011;63801;49.414;19.474;2022-12-22T07:00:26;55.22;;;21.13;;
75218;SDS011;63801;49.414;19.474;2022-12-22T07:02:27;52.35;;;21.05;;
75218;SDS011;63801;49.414;19.474;2022-12-22T07:04:27;66.32;;;23.13;;
75218;SDS011;63801;49.414;19.474;2022-12-22T07:06:29;43.90;;;15.87;;
75218;SDS011;63801;49.414;19.474;2022-12-22T07:08:30;21.52;;;8.40;;
75218;SDS011;63801;49.414;19.474;2022-12-22T07:10:30;22.08;;;9.00;;
75218;SDS011;63801;49.414;19.474;2022-12-22T07:12:49;9.85;;;5.00;;
75218;SDS011;63801;49.414;19.474;2022-12-22T07:14:49;7.28;;;3.70;;
75218;SDS011;63801;49.414;19.474;2022-12-22T07:16:49;5.25;;;3.38;;
75218;SDS011;63801;49.414;19.474;2022-12-22T07:18:50;4.22;;;2.75;;
75218;SDS011;63801;49.414;19.474;2022-12-22T07:20:50;6.35;;;3.30;;
75218;SDS011;63801;49.414;19.474;2022-12-22T07:22:50;6.93;;;3.65;;
75218;SDS011;63801;49.414;19.474;2022-12-22T07:24:51;5.25;;;3.00;;
75218;SDS011;63801;49.414;19.474;2022-12-22T07:26:51;7.60;;;5.22;;
75218;SDS011;63801;49.414;19.474;2022-12-22T07:28:52;6.05;;;3.08;;
75218;SDS011;63801;49.414;19.474;2022-12-22T07:30:52;6.40;;;3.63;;
75218;SDS011;63801;49.414;19.474;2022-12-22T07:32:53;6.18;;;3.50;;
75218;SDS011;63801;49.414;19.474;2022-12-22T07:34:53;6.25;;;3.30;;
75218;SDS011;63801;49.414;19.474;2022-12-22T07:36:54;6.55;;;3.97;;
75218;SDS011;63801;49.414;19.474;2022-12-22T07:38:54;6.57;;;3.60;;
75218;SDS011;63801;49.414;19.474;2022-12-22T07:40:58;7.03;;;3.72;;
75218;SDS011;63801;49.414;19.474;2022-12-22T07:42:59;6.53;;;3.45;;
75218;SDS011;63801;49.414;19.474;2022-12-22T07:44:59;8.98;;;4.53;;
75218;SDS011;63801;49.414;19.474;2022-12-22T07:47:00;7.45;;;4.03;;
75218;SDS011;63801;49.414;19.474;2022-12-22T07:49:00;6.45;;;3.60;;
75218;SDS011;63801;49.414;19.474;2022-12-22T07:51:20;6.10;;;3.30;;
75218;SDS011;63801;49.414;19.474;2022-12-22T07:53:20;5.70;;;3.55;;
75218;SDS011;63801;49.414;19.474;2022-12-22T07:55:21;6.05;;;3.35;;
75218;SDS011;63801;49.414;19.474;2022-12-22T07:57:22;6.80;;;3.78;;
75218;SDS011;63801;49.414;19.474;2022-12-22T07:59:25;7.10;;;3.35;;
75218;SDS011;63801;49.414;19.474;2022-12-22T08:01:25;5.30;;;2.92;;
75218;SDS011;63801;49.414;19.474;2022-12-22T08:03:26;8.40;;;3.50;;
75218;SDS011;63801;49.414;19.474;2022-12-22T08:05:26;5.75;;;3.45;;
75218;SDS011;63801;49.414;19.474;2022-12-22T08:07:26;5.45;;;2.92;;
75218;SDS011;63801;49.414;19.474;2022-12-22T08:09:27;6.78;;;3.45;;
75218;SDS011;63801;49.414;19.474;2022-12-22T08:11:27;5.05;;;3.03;;
75218;SDS011;63801;49.414;19.474;2022-12-22T08:13:28;6.63;;;2.88;;
75218;SDS011;63801;49.414;19.474;2022-12-22T08:15:28;4.57;;;2.80;;
75218;SDS011;63801;49.414;19.474;2022-12-22T08:17:29;4.80;;;2.50;;
75218;SDS011;63801;49.414;19.474;2022-12-22T08:19:29;4.22;;;2.45;;
75218;SDS011;63801;49.414;19.474;2022-12-22T08:21:31;4.10;;;2.40;;
75218;SDS011;63801;49.414;19.474;2022-12-22T08:23:32;7.40;;;2.78;;
75218;SDS011;63801;49.414;19.474;2022-12-22T08:25:33;4.10;;;2.40;;
75218;SDS011;63801;49.414;19.474;2022-12-22T08:27:37;4.43;;;2.42;;
75218;SDS011;63801;49.414;19.474;2022-12-22T08:29:44;3.50;;;2.20;;
75218;SDS011;63801;49.414;19.474;2022-12-22T08:31:47;3.95;;;2.15;;
75218;SDS011;63801;49.414;19.474;2022-12-22T08:33:48;3.97;;;2.08;;
75218;SDS011;63801;49.414;19.474;2022-12-22T08:35:48;4.65;;;2.20;;
75218;SDS011;63801;49.414;19.474;2022-12-22T08:37:48;3.85;;;2.00;;
75218;SDS011;63801;49.414;19.474;2022-12-22T08:39:51;3.72;;;1.90;;
75218;SDS011;63801;49.414;19.474;2022-12-22T08:41:56;4.15;;;2.03;;
75218;SDS011;63801;49.414;19.474;2022-12-22T08:43:57;4.18;;;2.20;;
75218;SDS011;63801;49.414;19.474;2022-12-22T08:45:58;4.53;;;2.00;;
75218;SDS011;63801;49.414;19.474;2022-12-22T08:47:58;3.22;;;2.05;;
75218;SDS011;63801;49.414;19.474;2022-12-22T08:49:59;5.47;;;1.83;;
75218;SDS011;63801;49.414;19.474;2022-12-22T08:51:59;6.53;;;2.88;;
75218;SDS011;63801;49.414;19.474;2022-12-22T08:53:59;4.32;;;1.90;;
75218;SDS011;63801;49.414;19.474;2022-12-22T08:56:00;4.70;;;1.92;;
75218;SDS011;63801;49.414;19.474;2022-12-22T08:58:01;10.55;;;3.97;;
75218;SDS011;63801;49.414;19.474;2022-12-22T09:00:02;15.38;;;5.78;;
75218;SDS011;63801;49.414;19.474;2022-12-22T09:02:05;3.50;;;1.70;;
75218;SDS011;63801;49.414;19.474;2022-12-22T09:04:05;15.85;;;4.43;;
75218;SDS011;63801;49.414;19.474;2022-12-22T09:06:06;20.75;;;8.38;;
75218;SDS011;63801;49.414;19.474;2022-12-22T09:08:06;18.90;;;7.60;;
75218;SDS011;63801;49.414;19.474;2022-12-22T09:10:07;8.15;;;3.90;;
75218;SDS011;63801;49.414;19.474;2022-12-22T09:12:09;3.58;;;2.33;;
75218;SDS011;63801;49.414;19.474;2022-12-22T09:14:10;4.60;;;2.63;;
75218;SDS011;63801;49.414;19.474;2022-12-22T09:16:11;3.50;;;1.98;;
75218;SDS011;63801;49.414;19.474;2022-12-22T09:18:11;2.35;;;1.40;;
75218;SDS011;63801;49.414;19.474;2022-12-22T09:20:11;3.20;;;1.85;;
75218;SDS011;63801;49.414;19.474;2022-12-22T09:22:13;3.38;;;1.80;;
75218;SDS011;63801;49.414;19.474;2022-12-22T09:24:13;3.65;;;2.20;;
75218;SDS011;63801;49.414;19.474;2022-12-22T09:26:15;22.33;;;7.85;;
75218;SDS011;63801;49.414;19.474;2022-12-22T09:28:17;27.08;;;9.85;;
75218;SDS011;63801;49.414;19.474;2022-12-22T09:30:17;25.75;;;10.07;;
75218;SDS011;63801;49.414;19.474;2022-12-22T09:32:18;8.52;;;3.20;;
75218;SDS011;63801;49.414;19.474;2022-12-22T09:34:18;4.45;;;1.85;;
75218;SDS011;63801;49.414;19.474;2022-12-22T09:36:20;2.92;;;1.65;;
75218;SDS011;63801;49.414;19.474;2022-12-22T09:38:26;3.05;;;1.40;;
75218;SDS011;63801;49.414;19.474;2022-12-22T09:40:27;7.72;;;3.22;;
75218;SDS011;63801;49.414;19.474;2022-12-22T09:42:27;2.90;;;1.50;;
75218;SDS011;63801;49.414;19.474;2022-12-22T09:44:33;4.65;;;2.38;;
75218;SDS011;63801;49.414;19.474;2022-12-22T09:46:37;5.97;;;2.67;;
75218;SDS011;63801;49.414;19.474;2022-12-22T09:48:38;9.55;;;3.85;;
75218;SDS011;63801;49.414;19.474;2022-12-22T09:50:39;4.20;;;1.98;;
75218;SDS011;63801;49.414;19.474;2022-12-22T09:52:42;12.25;;;4.65;;
75218;SDS011;63801;49.414;19.474;2022-12-22T09:54:46;3.47;;;2.00;;
75218;SDS011;63801;49.414;19.474;2022-12-22T09:56:47;6.28;;;2.88;;
75218;SDS011;63801;49.414;19.474;2022-12-22T09:58:47;5.97;;;2.60;;
75218;SDS011;63801;49.414;19.474;2022-12-22T10:00:50;5.53;;;3.00;;
75218;SDS011;63801;49.414;19.474;2022-12-22T10:03:07;4.07;;;2.28;;
75218;SDS011;63801;49.414;19.474;2022-12-22T10:05:49;5.43;;;2.10;;
75218;SDS011;63801;49.414;19.474;2022-12-22T10:08:01;6.18;;;2.75;;
75218;SDS011;63801;49.414;19.474;2022-12-22T10:12:26;4.80;;;2.10;;
75218;SDS011;63801;49.414;19.474;2022-12-22T10:14:45;5.68;;;2.40;;
75218;SDS011;63801;49.414;19.474;2022-12-22T10:16:47;50.10;;;12.70;;
75218;SDS011;63801;49.414;19.474;2022-12-22T10:18:58;43.67;;;10.98;;
75218;SDS011;63801;49.414;19.474;2022-12-22T10:23:12;18.25;;;4.47;;
75218;SDS011;63801;49.414;19.474;2022-12-22T10:27:59;3.92;;;1.45;;
75218;SDS011;63801;49.414;19.474;2022-12-22T10:34:25;2.57;;;1.50;;
75218;SDS011;63801;49.414;19.474;2022-12-22T10:36:27;2.85;;;1.00;;
75218;SDS011;63801;49.414;19.474;2022-12-22T10:38:38;5.43;;;1.85;;
75218;SDS011;63801;49.414;19.474;2022-12-22T10:40:55;2.50;;;1.27;;
75218;SDS011;63801;49.414;19.474;2022-12-22T10:42:58;1.95;;;1.45;;
75218;SDS011;63801;49.414;19.474;2022-12-22T10:45:01;3.28;;;1.60;;
75218;SDS011;63801;49.414;19.474;2022-12-22T10:47:11;4.47;;;2.08;;
75218;SDS011;63801;49.414;19.474;2022-12-22T10:49:24;3.47;;;1.98;;
75218;SDS011;63801;49.414;19.474;2022-12-22T10:51:27;2.63;;;1.58;;
75218;SDS011;63801;49.414;19.474;2022-12-22T10:53:37;2.70;;;1.40;;
75218;SDS011;63801;49.414;19.474;2022-12-22T10:55:38;1.92;;;1.27;;
75218;SDS011;63801;49.414;19.474;2022-12-22T10:57:39;3.38;;;1.20;;
75218;SDS011;63801;49.414;19.474;2022-12-22T11:01:53;1.55;;;1.15;;
75218;SDS011;63801;49.414;19.474;2022-12-22T11:04:24;1.98;;;1.33;;
75218;SDS011;63801;49.414;19.474;2022-12-22T11:06:26;2.28;;;1.45;;
75218;SDS011;63801;49.414;19.474;2022-12-22T11:08:26;2.45;;;1.55;;
75218;SDS011;63801;49.414;19.474;2022-12-22T11:12:59;4.30;;;1.88;;
75218;SDS011;63801;49.414;19.474;2022-12-22T11:17:46;6.68;;;2.70;;
75218;SDS011;63801;49.414;19.474;2022-12-22T11:22:38;7.25;;;3.13;;
75218;SDS011;63801;49.414;19.474;2022-12-22T11:24:56;4.72;;;2.78;;
75218;SDS011;63801;49.414;19.474;2022-12-22T11:31:43;3.10;;;1.83;;
75218;SDS011;63801;49.414;19.474;2022-12-22T11:38:56;3.13;;;1.98;;
75218;SDS011;63801;49.414;19.474;2022-12-22T11:41:08;3.17;;;2.03;;
75218;SDS011;63801;49.414;19.474;2022-12-22T11:43:18;4.93;;;2.58;;
75218;SDS011;63801;49.414;19.474;2022-12-22T11:47:45;4.15;;;2.47;;
75218;SDS011;63801;49.414;19.474;2022-12-22T11:56:35;7.00;;;3.03;;
75218;SDS011;63801;49.414;19.474;2022-12-22T12:01:04;5.20;;;2.47;;
75218;SDS011;63801;49.414;19.474;2022-12-22T12:03:24;3.80;;;2.25;;
75218;SDS011;63801;49.414;19.474;2022-12-22T12:10:30;3.73;;;1.87;;
75218;SDS011;63801;49.414;19.474;2022-12-22T12:19:24;3.00;;;1.93;;
75218;SDS011;63801;49.414;19.474;2022-12-22T12:21:27;3.80;;;2.00;;
75218;SDS011;63801;49.414;19.474;2022-12-22T12:30:03;5.32;;;2.42;;
75218;SDS011;63801;49.414;19.474;2022-12-22T12:32:17;3.30;;;2.00;;
75218;SDS011;63801;49.414;19.474;2022-12-22T12:34:32;5.35;;;2.20;;
75218;SDS011;63801;49.414;19.474;2022-12-22T12:41:32;5.32;;;3.13;;
75218;SDS011;63801;49.414;19.474;2022-12-22T12:43:43;6.20;;;3.22;;
75218;SDS011;63801;49.414;19.474;2022-12-22T12:45:47;10.13;;;4.80;;
75218;SDS011;63801;49.414;19.474;2022-12-22T12:47:48;5.97;;;3.40;;
75218;SDS011;63801;49.414;19.474;2022-12-22T12:49:52;9.13;;;4.45;;
75218;SDS011;63801;49.414;19.474;2022-12-22T12:51:56;7.75;;;4.43;;
75218;SDS011;63801;49.414;19.474;2022-12-22T12:56:52;10.32;;;4.40;;
75218;SDS011;63801;49.414;19.474;2022-12-22T12:59:06;7.38;;;3.90;;
75218;SDS011;63801;49.414;19.474;2022-12-22T13:01:10;7.13;;;4.00;;
75218;SDS011;63801;49.414;19.474;2022-12-22T13:05:31;9.93;;;4.72;;
75218;SDS011;63801;49.414;19.474;2022-12-22T13:10:15;7.95;;;4.47;;
75218;SDS011;63801;49.414;19.474;2022-12-22T13:12:37;12.50;;;5.15;;
75218;SDS011;63801;49.414;19.474;2022-12-22T13:14:58;9.52;;;4.90;;
75218;SDS011;63801;49.414;19.474;2022-12-22T13:19:33;10.70;;;5.38;;
75218;SDS011;63801;49.414;19.474;2022-12-22T13:21:37;10.90;;;4.85;;
75218;SDS011;63801;49.414;19.474;2022-12-22T13:23:42;9.80;;;5.22;;
75218;SDS011;63801;49.414;19.474;2022-12-22T13:25:49;8.93;;;4.72;;
75218;SDS011;63801;49.414;19.474;2022-12-22T13:28:02;9.10;;;4.55;;
75218;SDS011;63801;49.414;19.474;2022-12-22T13:30:02;8.80;;;4.38;;
75218;SDS011;63801;49.414;19.474;2022-12-22T13:32:13;9.18;;;4.90;;
75218;SDS011;63801;49.414;19.474;2022-12-22T13:36:22;11.35;;;4.95;;
75218;SDS011;63801;49.414;19.474;2022-12-22T13:38:30;9.75;;;5.25;;
75218;SDS011;63801;49.414;19.474;2022-12-22T13:40:39;14.48;;;6.63;;
75218;SDS011;63801;49.414;19.474;2022-12-22T13:44:45;6.93;;;3.70;;
75218;SDS011;63801;49.414;19.474;2022-12-22T13:46:45;6.68;;;4.05;;
75218;SDS011;63801;49.414;19.474;2022-12-22T13:48:47;7.43;;;4.32;;
75218;SDS011;63801;49.414;19.474;2022-12-22T13:50:50;6.55;;;3.75;;
75218;SDS011;63801;49.414;19.474;2022-12-22T13:52:53;8.35;;;4.47;;
75218;SDS011;63801;49.414;19.474;2022-12-22T13:54:56;8.98;;;4.57;;
75218;SDS011;63801;49.414;19.474;2022-12-22T13:56:57;8.80;;;4.78;;
75218;SDS011;63801;49.414;19.474;2022-12-22T13:58:59;8.35;;;4.80;;
75218;SDS011;63801;49.414;19.474;2022-12-22T14:01:02;8.75;;;4.97;;
75218;SDS011;63801;49.414;19.474;2022-12-22T14:03:17;8.15;;;4.88;;
75218;SDS011;63801;49.414;19.474;2022-12-22T14:05:18;8.43;;;4.55;;
75218;SDS011;63801;49.414;19.474;2022-12-22T14:07:19;7.65;;;4.47;;
75218;SDS011;63801;49.414;19.474;2022-12-22T14:09:23;8.73;;;5.50;;
75218;SDS011;63801;49.414;19.474;2022-12-22T14:11:25;6.65;;;3.88;;